Time;durP1;ratioP1;P1;durP2;ratioP2;P2;SDS_P1;SDS_P2;PMS_P1;PMS_P2;Temp;Humidity;BMP_temperature;BMP_pressure;BME280_temperature;BME280_humidity;BME280_pressure;Samples;Min_cycle;Max_cycle;Signal;HPM_P1;HPM_P2
2023/08/18 00:02:15;;;;;;;16.83;4.82;;;;;;;;;;4983410;28;20247;-80
2023/08/18 00:04:42;;;;;;;18.90;5.28;;;;;;;;;;4996508;28;20250;-80
2023/08/18 00:07:10;;;;;;;23.08;5.80;;;;;;;;;;5007612;28;20242;-80
2023/08/18 00:09:36;;;;;;;14.00;3.50;;;;;;;;;;5004425;28;20242;-79
2023/08/18 00:12:05;;;;;;;17.90;4.97;;;;;;;;;;4982761;28;20267;-80
2023/08/18 00:14:32;;;;;;;16.92;4.10;;;;;;;;;;5006349;28;20227;-80
2023/08/18 00:16:58;;;;;;;17.17;4.28;;;;;;;;;;4997659;28;20242;-79
2023/08/18 00:19:25;;;;;;;15.13;3.90;;;;;;;;;;5003712;28;20267;-78
2023/08/18 00:21:52;;;;;;;18.23;5.32;;;;;;;;;;4986706;28;20243;-80
2023/08/18 00:24:18;;;;;;;17.95;4.63;;;;;;;;;;4996294;28;20231;-79
2023/08/18 00:26:45;;;;;;;27.27;7.15;;;;;;;;;;4982231;28;20295;-79
2023/08/18 00:29:12;;;;;;;13.68;3.67;;;;;;;;;;4998169;28;20235;-80
2023/08/18 00:31:39;;;;;;;16.58;4.43;;;;;;;;;;4984280;28;20252;-78
2023/08/18 00:34:06;;;;;;;13.20;3.58;;;;;;;;;;5008323;28;20326;-79
2023/08/18 00:36:32;;;;;;;17.63;5.07;;;;;;;;;;5002903;28;20231;-79
2023/08/18 00:38:59;;;;;;;15.70;4.05;;;;;;;;;;4987897;28;20238;-78
2023/08/18 00:41:26;;;;;;;13.32;3.50;;;;;;;;;;4999451;28;20261;-78
2023/08/18 00:43:52;;;;;;;19.60;5.50;;;;;;;;;;4994429;28;20681;-79
2023/08/18 00:46:20;;;;;;;19.38;5.43;;;;;;;;;;4984993;28;20241;-79
2023/08/18 00:48:48;;;;;;;21.88;6.00;;;;;;;;;;5000084;28;20326;-79
2023/08/18 00:51:15;;;;;;;15.00;4.30;;;;;;;;;;4992064;28;20250;-79
2023/08/18 00:53:42;;;;;;;22.77;6.15;;;;;;;;;;4998818;28;20326;-78
2023/08/18 00:56:09;;;;;;;13.18;3.45;;;;;;;;;;5003796;28;20239;-80
2023/08/18 00:58:36;;;;;;;13.18;4.00;;;;;;;;;;5001856;28;20242;-79
2023/08/18 01:01:03;;;;;;;17.85;4.78;;;;;;;;;;4999755;28;20233;-78
2023/08/18 01:03:30;;;;;;;14.30;4.53;;;;;;;;;;4986760;28;20227;-79
2023/08/18 01:05:58;;;;;;;23.02;6.40;;;;;;;;;;4994235;28;20334;-79
2023/08/18 01:08:25;;;;;;;16.10;3.92;;;;;;;;;;4996245;28;20729;-79
2023/08/18 01:10:57;;;;;;;21.80;6.25;;;;;;;;;;4993473;28;20239;-79
2023/08/18 01:13:42;;;;;;;16.65;4.63;;;;;;;;;;4988134;28;20231;-78
2023/08/18 01:16:14;;;;;;;19.52;4.95;;;;;;;;;;4997526;28;20239;-78
2023/08/18 01:18:41;;;;;;;19.02;5.13;;;;;;;;;;4980989;28;20232;-79
2023/08/18 01:21:10;;;;;;;16.73;4.70;;;;;;;;;;4998731;28;20245;-79
2023/08/18 01:23:40;;;;;;;13.32;3.65;;;;;;;;;;5002113;28;20230;-79
2023/08/18 01:26:07;;;;;;;19.25;5.10;;;;;;;;;;4988287;28;20243;-77
2023/08/18 01:28:34;;;;;;;17.83;4.80;;;;;;;;;;5003787;28;20236;-79
2023/08/18 01:31:06;;;;;;;12.95;3.47;;;;;;;;;;4999429;28;20263;-79
2023/08/18 01:33:51;;;;;;;13.00;3.25;;;;;;;;;;5001720;28;20376;-79
2023/08/18 01:36:19;;;;;;;12.10;3.03;;;;;;;;;;5007019;28;20227;-79
2023/08/18 01:38:48;;;;;;;16.80;4.70;;;;;;;;;;5001033;28;20231;-78
2023/08/18 01:41:17;;;;;;;13.32;3.50;;;;;;;;;;4997790;28;20240;-78
2023/08/18 01:43:43;;;;;;;21.05;6.15;;;;;;;;;;5002398;28;20243;-79
2023/08/18 01:46:10;;;;;;;15.30;4.10;;;;;;;;;;5002155;28;20227;-78
2023/08/18 01:48:36;;;;;;;13.25;3.92;;;;;;;;;;5008488;28;20231;-79
2023/08/18 01:51:03;;;;;;;21.63;5.43;;;;;;;;;;5002553;28;20270;-79
2023/08/18 01:53:29;;;;;;;13.27;3.33;;;;;;;;;;4998492;28;20236;-79
2023/08/18 01:55:59;;;;;;;18.17;4.75;;;;;;;;;;4995314;28;20271;-79
2023/08/18 01:58:25;;;;;;;17.15;4.82;;;;;;;;;;4986276;28;20232;-79
2023/08/18 02:00:54;;;;;;;21.55;6.32;;;;;;;;;;5000008;28;20271;-79
2023/08/18 02:03:20;;;;;;;14.90;3.72;;;;;;;;;;5002110;28;20278;-78
2023/08/18 02:05:47;;;;;;;26.40;7.05;;;;;;;;;;4999256;28;20645;-79
2023/08/18 02:08:14;;;;;;;16.25;4.18;;;;;;;;;;4996357;28;20232;-78
2023/08/18 02:10:40;;;;;;;21.50;5.63;;;;;;;;;;4998630;28;20273;-77
2023/08/18 02:13:07;;;;;;;17.70;5.03;;;;;;;;;;5005423;28;20235;-77
2023/08/18 02:15:33;;;;;;;15.65;4.13;;;;;;;;;;5003614;28;20228;-79
2023/08/18 02:18:00;;;;;;;18.05;4.50;;;;;;;;;;4996911;28;20251;-78
2023/08/18 02:20:26;;;;;;;19.35;4.88;;;;;;;;;;4999867;28;20299;-78
2023/08/18 02:22:53;;;;;;;20.83;5.93;;;;;;;;;;4989324;28;20317;-78
2023/08/18 02:25:21;;;;;;;14.45;3.28;;;;;;;;;;4999141;28;20235;-79
2023/08/18 02:27:47;;;;;;;19.80;5.68;;;;;;;;;;5002537;28;20239;-78
2023/08/18 02:30:14;;;;;;;18.92;4.72;;;;;;;;;;4999965;28;20235;-79
2023/08/18 02:32:41;;;;;;;19.80;5.53;;;;;;;;;;4980656;28;20235;-78
2023/08/18 02:35:08;;;;;;;14.95;4.25;;;;;;;;;;4995564;28;20261;-78
2023/08/18 02:37:34;;;;;;;18.85;5.13;;;;;;;;;;5002569;28;20251;-79
2023/08/18 02:40:01;;;;;;;18.30;4.90;;;;;;;;;;4990182;28;20250;-79
2023/08/18 02:42:27;;;;;;;11.88;3.60;;;;;;;;;;5007430;28;20236;-78
2023/08/18 02:44:54;;;;;;;19.73;5.60;;;;;;;;;;5014490;28;20235;-78
2023/08/18 02:47:20;;;;;;;14.48;3.70;;;;;;;;;;5003872;28;20228;-79
2023/08/18 02:49:47;;;;;;;22.20;6.00;;;;;;;;;;4984089;28;20286;-78
2023/08/18 02:52:14;;;;;;;15.52;4.13;;;;;;;;;;5005613;28;20235;-78
2023/08/18 02:54:40;;;;;;;15.13;4.10;;;;;;;;;;4999793;28;20235;-79
2023/08/18 02:57:07;;;;;;;16.25;4.38;;;;;;;;;;5005911;28;20235;-79
2023/08/18 02:59:33;;;;;;;11.10;2.80;;;;;;;;;;5007609;28;20254;-77
2023/08/18 03:02:00;;;;;;;12.35;3.25;;;;;;;;;;4991081;28;20707;-79
2023/08/18 03:04:27;;;;;;;13.10;3.90;;;;;;;;;;5003247;28;20310;-79
2023/08/18 03:06:53;;;;;;;18.55;5.38;;;;;;;;;;4991699;28;20224;-79
2023/08/18 03:09:20;;;;;;;11.75;3.67;;;;;;;;;;5004876;28;20243;-79
2023/08/18 03:11:46;;;;;;;20.88;5.68;;;;;;;;;;4989506;28;20251;-79
2023/08/18 03:14:13;;;;;;;13.98;3.95;;;;;;;;;;4995075;28;20270;-79
2023/08/18 03:16:40;;;;;;;16.30;4.65;;;;;;;;;;4990806;28;20243;-78
2023/08/18 03:19:06;;;;;;;13.25;3.55;;;;;;;;;;4984147;28;20315;-78
2023/08/18 03:21:33;;;;;;;12.90;3.67;;;;;;;;;;5000896;28;20239;-79
2023/08/18 03:23:59;;;;;;;14.55;3.85;;;;;;;;;;4990522;28;20733;-79
2023/08/18 03:26:26;;;;;;;15.65;3.92;;;;;;;;;;4987513;28;20236;-79
2023/08/18 03:28:56;;;;;;;21.20;6.22;;;;;;;;;;4992769;28;20262;-79
2023/08/18 03:31:23;;;;;;;13.07;3.55;;;;;;;;;;4999093;28;20250;-79
2023/08/18 03:33:49;;;;;;;23.17;6.30;;;;;;;;;;5001397;28;20240;-78
2023/08/18 03:36:16;;;;;;;19.05;4.97;;;;;;;;;;5000958;28;20251;-79
2023/08/18 03:38:42;;;;;;;18.42;5.68;;;;;;;;;;4997932;28;20263;-79
2023/08/18 03:41:09;;;;;;;14.70;4.18;;;;;;;;;;5004006;28;20301;-79
2023/08/18 03:43:36;;;;;;;13.48;3.65;;;;;;;;;;4993481;28;20235;-78
2023/08/18 03:46:07;;;;;;;13.05;3.47;;;;;;;;;;4994355;28;20234;-80
2023/08/18 03:48:34;;;;;;;14.05;4.15;;;;;;;;;;4997317;28;20246;-80
2023/08/18 03:51:01;;;;;;;15.48;3.75;;;;;;;;;;4995871;28;20744;-78
2023/08/18 03:53:27;;;;;;;12.40;3.38;;;;;;;;;;5003609;28;20264;-79
2023/08/18 03:55:59;;;;;;;24.73;7.05;;;;;;;;;;4994382;28;20711;-80
2023/08/18 03:58:26;;;;;;;15.32;4.13;;;;;;;;;;4990376;28;20227;-81
2023/08/18 04:01:00;;;;;;;24.95;6.32;;;;;;;;;;4996846;28;20250;-79
2023/08/18 04:03:26;;;;;;;23.15;6.57;;;;;;;;;;4980364;28;20227;-79
2023/08/18 04:05:53;;;;;;;17.08;4.78;;;;;;;;;;4985028;28;20281;-80
2023/08/18 04:08:20;;;;;;;15.02;3.85;;;;;;;;;;4997267;28;20599;-80
2023/08/18 04:10:46;;;;;;;21.48;6.10;;;;;;;;;;4978078;28;20706;-79
2023/08/18 04:13:13;;;;;;;15.88;4.50;;;;;;;;;;4995392;28;20242;-79
2023/08/18 04:15:39;;;;;;;15.63;4.70;;;;;;;;;;4988003;28;20235;-79
2023/08/18 04:18:06;;;;;;;14.88;4.38;;;;;;;;;;5000002;28;20246;-79
2023/08/18 04:20:33;;;;;;;14.90;3.92;;;;;;;;;;4998175;28;20332;-79
2023/08/18 04:22:59;;;;;;;15.98;4.20;;;;;;;;;;4990589;28;20262;-79
2023/08/18 04:25:26;;;;;;;11.98;3.80;;;;;;;;;;4998645;28;20230;-79
2023/08/18 04:27:53;;;;;;;17.63;4.82;;;;;;;;;;4985929;28;20298;-79
2023/08/18 04:30:19;;;;;;;16.00;4.38;;;;;;;;;;4994664;28;20231;-79
2023/08/18 04:32:47;;;;;;;27.00;7.95;;;;;;;;;;4992234;28;20227;-79
2023/08/18 04:35:13;;;;;;;13.30;3.28;;;;;;;;;;4997826;28;20264;-80
2023/08/18 04:37:40;;;;;;;14.20;4.05;;;;;;;;;;4994215;28;20382;-79
2023/08/18 04:40:07;;;;;;;21.50;6.60;;;;;;;;;;4993763;28;20247;-79
2023/08/18 04:42:34;;;;;;;15.45;3.63;;;;;;;;;;4984014;28;20239;-80
2023/08/18 04:45:00;;;;;;;18.17;4.70;;;;;;;;;;4997614;28;20227;-79
2023/08/18 04:47:27;;;;;;;15.95;4.88;;;;;;;;;;5005340;28;20235;-79
2023/08/18 04:49:53;;;;;;;29.48;8.18;;;;;;;;;;4981639;28;20220;-80
2023/08/18 04:52:20;;;;;;;13.18;3.42;;;;;;;;;;4997378;28;20227;-78
2023/08/18 04:54:47;;;;;;;21.00;5.78;;;;;;;;;;4997525;28;20243;-79
2023/08/18 04:57:13;;;;;;;15.25;3.83;;;;;;;;;;5000417;28;20243;-78
2023/08/18 04:59:40;;;;;;;19.27;5.75;;;;;;;;;;4994667;28;20332;-78
2023/08/18 05:02:07;;;;;;;21.15;5.63;;;;;;;;;;4993614;28;20238;-78
2023/08/18 05:04:34;;;;;;;19.80;4.68;;;;;;;;;;5005062;28;20250;-79
2023/08/18 05:07:00;;;;;;;22.60;6.53;;;;;;;;;;4980070;28;20247;-78
2023/08/18 05:09:30;;;;;;;22.05;5.78;;;;;;;;;;4992068;28;20227;-78
2023/08/18 05:11:57;;;;;;;28.23;7.75;;;;;;;;;;4988485;28;20259;-79
2023/08/18 05:14:23;;;;;;;14.07;4.10;;;;;;;;;;4992381;28;20233;-79
2023/08/18 05:16:50;;;;;;;25.23;6.72;;;;;;;;;;4993188;28;20286;-79
2023/08/18 05:19:16;;;;;;;18.50;5.13;;;;;;;;;;4988902;28;20701;-78
2023/08/18 05:21:43;;;;;;;24.08;6.53;;;;;;;;;;4980580;28;20232;-78
2023/08/18 05:24:09;;;;;;;19.08;5.22;;;;;;;;;;4994550;28;20229;-78
2023/08/18 05:26:36;;;;;;;13.20;3.60;;;;;;;;;;4998735;28;20289;-80
2023/08/18 05:29:04;;;;;;;14.02;3.53;;;;;;;;;;4985397;28;20239;-79
2023/08/18 05:31:32;;;;;;;15.63;3.95;;;;;;;;;;4987365;28;20237;-80
2023/08/18 05:33:59;;;;;;;16.48;4.13;;;;;;;;;;4996679;28;20223;-79
2023/08/18 05:36:25;;;;;;;12.57;3.05;;;;;;;;;;5001224;28;20312;-78
2023/08/18 05:38:52;;;;;;;21.58;6.25;;;;;;;;;;4990992;28;20290;-78
2023/08/18 05:41:18;;;;;;;15.35;4.10;;;;;;;;;;4992627;28;20229;-79
2023/08/18 05:43:45;;;;;;;25.60;6.78;;;;;;;;;;4991500;28;20231;-78
2023/08/18 05:46:11;;;;;;;14.30;3.63;;;;;;;;;;4998779;28;20243;-78
2023/08/18 05:48:38;;;;;;;22.80;6.10;;;;;;;;;;4988714;28;20256;-79
2023/08/18 05:51:05;;;;;;;15.75;4.70;;;;;;;;;;4988175;28;20251;-80
2023/08/18 05:53:32;;;;;;;12.20;3.13;;;;;;;;;;4996381;28;20227;-80
2023/08/18 05:55:58;;;;;;;24.95;5.82;;;;;;;;;;4993817;28;20235;-79
2023/08/18 05:58:25;;;;;;;17.08;4.50;;;;;;;;;;4999707;28;20223;-79
2023/08/18 06:00:52;;;;;;;24.40;6.53;;;;;;;;;;4986353;28;20235;-78
2023/08/18 06:03:19;;;;;;;15.55;4.70;;;;;;;;;;4994466;28;20306;-79
2023/08/18 06:05:46;;;;;;;27.00;7.75;;;;;;;;;;4983414;28;20232;-79
2023/08/18 06:08:13;;;;;;;20.00;5.70;;;;;;;;;;4994367;28;20232;-79
2023/08/18 06:10:40;;;;;;;14.70;4.82;;;;;;;;;;4981294;28;20237;-78
2023/08/18 06:13:07;;;;;;;17.80;4.65;;;;;;;;;;4992636;28;20227;-80
2023/08/18 06:15:33;;;;;;;18.85;5.05;;;;;;;;;;4996519;28;20314;-78
2023/08/18 06:18:00;;;;;;;22.67;5.97;;;;;;;;;;4984166;28;20240;-79
2023/08/18 06:20:27;;;;;;;18.05;5.72;;;;;;;;;;4987548;28;20231;-79
2023/08/18 06:22:53;;;;;;;23.52;6.60;;;;;;;;;;4992375;28;20243;-79
2023/08/18 06:25:20;;;;;;;19.23;4.72;;;;;;;;;;4999376;28;20224;-79
2023/08/18 06:27:46;;;;;;;23.58;6.32;;;;;;;;;;4976575;28;20237;-79
2023/08/18 06:30:13;;;;;;;20.10;5.47;;;;;;;;;;4993288;28;20239;-80
2023/08/18 06:32:40;;;;;;;27.95;7.65;;;;;;;;;;4983033;28;20247;-78
2023/08/18 06:35:07;;;;;;;16.30;5.05;;;;;;;;;;5000625;28;20295;-82
2023/08/18 06:37:33;;;;;;;20.05;5.50;;;;;;;;;;4992159;28;20243;-80
2023/08/18 06:40:00;;;;;;;18.63;4.85;;;;;;;;;;4990458;28;20235;-80
2023/08/18 06:42:26;;;;;;;12.57;3.47;;;;;;;;;;5007364;28;20269;-79
2023/08/18 06:44:53;;;;;;;23.70;6.53;;;;;;;;;;4993668;28;20219;-80
2023/08/18 06:47:20;;;;;;;17.80;5.47;;;;;;;;;;4999530;28;20242;-78
2023/08/18 06:49:47;;;;;;;66.72;13.98;;;;;;;;;;4979027;28;20228;-80
2023/08/18 06:52:14;;;;;;;9.30;2.80;;;;;;;;;;5000017;28;20242;-79
2023/08/18 06:54:41;;;;;;;27.38;6.95;;;;;;;;;;4989679;28;20283;-79
2023/08/18 06:57:07;;;;;;;19.52;4.93;;;;;;;;;;4939204;28;20235;-79
2023/08/18 06:59:34;;;;;;;13.18;3.53;;;;;;;;;;4991668;28;20258;-79
2023/08/18 07:02:00;;;;;;;15.13;3.72;;;;;;;;;;4996729;28;20239;-79
2023/08/18 07:04:27;;;;;;;25.63;5.13;;;;;;;;;;4998687;28;20239;-79
2023/08/18 07:06:54;;;;;;;23.95;5.72;;;;;;;;;;4992499;28;20227;-80
2023/08/18 07:09:21;;;;;;;16.92;4.20;;;;;;;;;;5000628;28;20225;-80
2023/08/18 07:11:48;;;;;;;28.75;7.25;;;;;;;;;;4992851;28;20239;-79
2023/08/18 07:14:15;;;;;;;27.67;7.22;;;;;;;;;;5002779;28;20227;-78
2023/08/18 07:16:41;;;;;;;22.00;5.47;;;;;;;;;;4973514;28;20235;-79
2023/08/18 07:19:08;;;;;;;18.52;4.22;;;;;;;;;;4999418;28;20309;-80
2023/08/18 07:21:34;;;;;;;16.83;4.43;;;;;;;;;;4991328;28;20282;-79
2023/08/18 07:24:03;;;;;;;19.08;4.57;;;;;;;;;;4982275;28;20242;-79
2023/08/18 07:26:29;;;;;;;17.02;4.60;;;;;;;;;;5000593;28;20235;-79
2023/08/18 07:28:56;;;;;;;20.58;4.97;;;;;;;;;;4997439;28;20274;-79
2023/08/18 07:31:23;;;;;;;17.50;4.22;;;;;;;;;;4990032;28;20235;-80
2023/08/18 07:33:49;;;;;;;25.35;6.32;;;;;;;;;;4983762;28;20239;-79
2023/08/18 07:36:16;;;;;;;23.73;5.75;;;;;;;;;;4996987;28;20227;-79
2023/08/18 07:38:42;;;;;;;33.17;8.98;;;;;;;;;;4995409;28;20231;-80
2023/08/18 07:41:09;;;;;;;19.40;4.63;;;;;;;;;;4985071;28;20243;-79
2023/08/18 07:43:35;;;;;;;13.70;3.42;;;;;;;;;;4989242;28;20234;-79
2023/08/18 07:46:02;;;;;;;19.83;4.70;;;;;;;;;;4990625;28;20234;-80
2023/08/18 07:48:30;;;;;;;18.88;4.85;;;;;;;;;;4993272;28;20227;-80
2023/08/18 07:50:56;;;;;;;19.30;5.78;;;;;;;;;;4983521;28;20273;-79
2023/08/18 07:53:23;;;;;;;16.30;4.10;;;;;;;;;;4999492;28;20242;-80
2023/08/18 07:55:49;;;;;;;25.92;6.03;;;;;;;;;;4996292;28;20219;-79
2023/08/18 07:58:16;;;;;;;18.25;4.63;;;;;;;;;;4979637;28;20303;-80
2023/08/18 08:00:43;;;;;;;18.23;4.78;;;;;;;;;;5004443;28;20237;-80
2023/08/18 08:03:09;;;;;;;19.55;4.80;;;;;;;;;;5005523;28;20219;-78
2023/08/18 08:05:36;;;;;;;12.30;3.00;;;;;;;;;;4995191;28;20224;-79
2023/08/18 08:08:03;;;;;;;20.95;5.30;;;;;;;;;;4995562;28;20717;-80
2023/08/18 08:10:30;;;;;;;16.42;4.07;;;;;;;;;;5007880;28;20259;-79
2023/08/18 08:12:57;;;;;;;20.92;5.32;;;;;;;;;;5008445;28;20241;-80
2023/08/18 08:15:24;;;;;;;19.88;4.75;;;;;;;;;;4997049;28;20327;-80
2023/08/18 08:17:51;;;;;;;24.45;6.35;;;;;;;;;;4993234;28;20227;-80
2023/08/18 08:20:17;;;;;;;15.88;4.20;;;;;;;;;;4985829;28;20227;-80
2023/08/18 08:22:46;;;;;;;22.17;5.30;;;;;;;;;;4987710;28;20231;-79
2023/08/18 08:25:13;;;;;;;18.55;4.53;;;;;;;;;;5005351;28;20231;-80
2023/08/18 08:27:40;;;;;;;18.02;4.68;;;;;;;;;;4989924;28;20219;-79
2023/08/18 08:30:07;;;;;;;17.30;4.30;;;;;;;;;;4984988;28;20232;-80
2023/08/18 08:32:39;;;;;;;19.65;4.72;;;;;;;;;;4993997;28;20303;-80
2023/08/18 08:35:06;;;;;;;28.90;6.90;;;;;;;;;;5001414;28;20222;-80
2023/08/18 08:37:32;;;;;;;18.20;4.18;;;;;;;;;;4998333;28;20219;-79
2023/08/18 08:40:05;;;;;;;20.67;5.43;;;;;;;;;;4965207;28;20239;-81
2023/08/18 08:42:31;;;;;;;14.25;3.17;;;;;;;;;;4987694;28;20235;-80
2023/08/18 08:44:58;;;;;;;27.45;6.50;;;;;;;;;;4985127;28;20239;-79
2023/08/18 08:47:26;;;;;;;18.70;3.83;;;;;;;;;;4996612;28;20231;-79
2023/08/18 08:50:01;;;;;;;29.98;7.05;;;;;;;;;;5002012;28;20223;-79
2023/08/18 08:52:30;;;;;;;18.60;4.15;;;;;;;;;;5011591;28;20241;-80
2023/08/18 08:54:58;;;;;;;25.95;5.38;;;;;;;;;;4973668;28;20235;-81
2023/08/18 08:57:25;;;;;;;15.55;3.92;;;;;;;;;;4996671;28;20242;-80
2023/08/18 08:59:52;;;;;;;78.82;16.42;;;;;;;;;;4980439;28;20262;-80
2023/08/18 09:02:18;;;;;;;13.77;3.85;;;;;;;;;;4978480;28;20290;-80
2023/08/18 09:04:47;;;;;;;65.22;14.15;;;;;;;;;;5000547;28;20329;-80
2023/08/18 09:07:14;;;;;;;20.10;4.97;;;;;;;;;;5001227;28;20353;-81
2023/08/18 09:09:41;;;;;;;34.65;6.72;;;;;;;;;;4997947;28;20297;-79
2023/08/18 09:12:09;;;;;;;19.95;4.93;;;;;;;;;;4993145;28;20235;-80
2023/08/18 09:14:39;;;;;;;20.48;4.78;;;;;;;;;;5003100;28;20231;-80
2023/08/18 09:17:06;;;;;;;22.52;5.10;;;;;;;;;;4991801;28;20249;-79
2023/08/18 09:19:33;;;;;;;18.17;4.20;;;;;;;;;;4993857;28;20235;-79
2023/08/18 09:22:01;;;;;;;19.50;4.57;;;;;;;;;;4974711;28;20240;-80
2023/08/18 09:24:30;;;;;;;22.48;4.95;;;;;;;;;;4997192;28;20227;-79
2023/08/18 09:27:06;;;;;;;21.55;5.70;;;;;;;;;;4976295;28;20240;-80
2023/08/18 09:29:33;;;;;;;20.65;4.45;;;;;;;;;;4992589;28;20227;-79
2023/08/18 09:32:01;;;;;;;19.08;4.32;;;;;;;;;;4997568;28;20298;-80
2023/08/18 09:34:27;;;;;;;22.73;5.50;;;;;;;;;;4995542;28;20231;-80
2023/08/18 09:36:54;;;;;;;16.55;5.60;;;;;;;;;;4988658;28;20725;-79
2023/08/18 09:39:21;;;;;;;15.35;4.07;;;;;;;;;;4988329;28;20236;-79
2023/08/18 09:41:50;;;;;;;34.88;8.65;;;;;;;;;;4986951;28;20287;-80
2023/08/18 09:44:23;;;;;;;18.85;4.53;;;;;;;;;;4985565;28;20284;-80
2023/08/18 09:46:50;;;;;;;29.42;7.22;;;;;;;;;;4967359;28;20240;-79
2023/08/18 09:49:19;;;;;;;24.38;5.63;;;;;;;;;;4986835;28;20656;-79
2023/08/18 09:51:48;;;;;;;32.47;7.72;;;;;;;;;;4970267;28;20235;-80
2023/08/18 09:54:17;;;;;;;25.38;5.55;;;;;;;;;;4971995;28;20239;-80
2023/08/18 09:56:45;;;;;;;34.83;7.43;;;;;;;;;;4984283;28;20242;-80
2023/08/18 09:59:17;;;;;;;21.60;5.22;;;;;;;;;;4973123;28;20250;-81
2023/08/18 10:01:46;;;;;;;37.45;7.80;;;;;;;;;;4978513;28;20297;-78
2023/08/18 10:04:15;;;;;;;22.38;5.57;;;;;;;;;;4983880;28;20235;-79
2023/08/18 10:06:43;;;;;;;44.40;7.78;;;;;;;;;;4981129;28;20266;-78
2023/08/18 10:09:10;;;;;;;25.85;5.50;;;;;;;;;;4993685;28;20691;-78
2023/08/18 10:11:37;;;;;;;31.70;6.43;;;;;;;;;;4992945;28;20223;-78
2023/08/18 10:14:19;;;;;;;38.90;7.82;;;;;;;;;;4997246;28;20231;-78
2023/08/18 10:16:47;;;;;;;38.78;8.57;;;;;;;;;;4986051;28;20231;-78
2023/08/18 10:19:13;;;;;;;19.70;4.10;;;;;;;;;;4998750;28;20231;-80
2023/08/18 10:21:40;;;;;;;18.95;4.13;;;;;;;;;;4995220;28;20294;-80
2023/08/18 10:24:07;;;;;;;21.85;4.57;;;;;;;;;;4998654;28;20227;-79
2023/08/18 10:26:35;;;;;;;16.88;3.80;;;;;;;;;;4990289;28;20224;-79
2023/08/18 10:29:17;;;;;;;24.75;4.85;;;;;;;;;;4979123;28;20231;-80
2023/08/18 10:31:48;;;;;;;19.10;4.97;;;;;;;;;;4987938;28;20228;-80
2023/08/18 10:34:23;;;;;;;20.70;4.63;;;;;;;;;;4995803;28;20291;-78
2023/08/18 10:36:59;;;;;;;20.77;5.30;;;;;;;;;;4987016;28;20227;-80
2023/08/18 10:39:26;;;;;;;12.20;2.75;;;;;;;;;;4989892;28;20314;-79
2023/08/18 10:42:12;;;;;;;20.67;5.18;;;;;;;;;;5001936;28;20277;-78
2023/08/18 10:44:54;;;;;;;14.35;3.28;;;;;;;;;;4994455;28;20231;-77
2023/08/18 10:47:28;;;;;;;19.38;4.00;;;;;;;;;;5005278;28;20230;-79
2023/08/18 10:49:54;;;;;;;37.47;8.52;;;;;;;;;;4995839;28;20233;-77
2023/08/18 10:52:21;;;;;;;21.85;4.70;;;;;;;;;;5001571;28;20258;-78
2023/08/18 10:54:48;;;;;;;24.05;5.57;;;;;;;;;;4990429;28;20230;-79
2023/08/18 10:57:15;;;;;;;22.27;5.03;;;;;;;;;;4987015;28;20230;-78
2023/08/18 10:59:41;;;;;;;28.85;6.57;;;;;;;;;;4976292;28;20236;-78
2023/08/18 11:02:08;;;;;;;28.08;5.53;;;;;;;;;;4997417;28;20244;-78
2023/08/18 11:04:35;;;;;;;16.85;3.55;;;;;;;;;;4981170;28;20227;-78
2023/08/18 11:07:01;;;;;;;15.35;3.75;;;;;;;;;;4981335;28;20231;-79
2023/08/18 11:09:28;;;;;;;17.75;4.20;;;;;;;;;;4977366;28;20291;-78
2023/08/18 11:11:55;;;;;;;28.25;7.07;;;;;;;;;;4994878;28;20235;-79
2023/08/18 11:14:21;;;;;;;15.82;3.25;;;;;;;;;;4999367;28;20230;-79
2023/08/18 11:16:48;;;;;;;29.33;7.50;;;;;;;;;;4984460;28;20223;-78
2023/08/18 11:19:17;;;;;;;21.15;4.68;;;;;;;;;;4998966;28;20315;-79
2023/08/18 11:21:44;;;;;;;26.80;6.32;;;;;;;;;;4990374;28;20231;-84
2023/08/18 11:24:10;;;;;;;17.42;4.35;;;;;;;;;;5000369;28;20246;-80
2023/08/18 11:26:38;;;;;;;13.88;3.13;;;;;;;;;;4998197;28;20227;-79
2023/08/18 11:29:05;;;;;;;17.67;4.00;;;;;;;;;;4997882;28;20227;-80
2023/08/18 11:31:32;;;;;;;19.27;4.47;;;;;;;;;;4996805;28;20301;-81
2023/08/18 11:33:59;;;;;;;15.80;3.75;;;;;;;;;;4996880;28;20278;-80
2023/08/18 11:36:29;;;;;;;14.43;3.45;;;;;;;;;;4988753;28;20219;-80
2023/08/18 11:38:59;;;;;;;28.58;6.72;;;;;;;;;;4989222;28;21337;-80
2023/08/18 11:41:26;;;;;;;16.38;3.58;;;;;;;;;;4995318;28;20289;-80
2023/08/18 11:43:53;;;;;;;27.45;6.93;;;;;;;;;;5003687;28;20230;-80
2023/08/18 11:46:20;;;;;;;17.73;3.75;;;;;;;;;;4998978;28;20236;-79
2023/08/18 11:48:46;;;;;;;29.63;6.88;;;;;;;;;;4999236;28;20230;-79
2023/08/18 11:51:17;;;;;;;22.45;4.88;;;;;;;;;;4993003;28;20281;-80
2023/08/18 11:53:45;;;;;;;29.67;7.00;;;;;;;;;;4978932;28;20266;-79
2023/08/18 11:56:12;;;;;;;15.30;3.72;;;;;;;;;;4982870;28;20227;-80
2023/08/18 11:58:39;;;;;;;16.70;3.92;;;;;;;;;;5002437;28;20258;-79
2023/08/18 12:01:07;;;;;;;31.60;5.90;;;;;;;;;;4995858;28;20231;-80
2023/08/18 12:03:34;;;;;;;15.70;3.30;;;;;;;;;;5001217;28;20223;-81
2023/08/18 12:06:02;;;;;;;18.95;3.85;;;;;;;;;;4993974;28;20250;-79
2023/08/18 12:08:29;;;;;;;26.38;4.95;;;;;;;;;;4992590;28;20704;-79
2023/08/18 12:10:57;;;;;;;46.22;9.65;;;;;;;;;;4989654;28;20242;-80
2023/08/18 12:13:27;;;;;;;20.65;4.50;;;;;;;;;;4991916;28;20250;-79
2023/08/18 12:15:53;;;;;;;76.15;15.35;;;;;;;;;;4976034;28;20235;-80
2023/08/18 12:18:20;;;;;;;25.40;5.07;;;;;;;;;;4993218;28;20242;-80
2023/08/18 12:20:47;;;;;;;24.27;6.03;;;;;;;;;;4995280;28;20234;-80
2023/08/18 12:23:13;;;;;;;25.50;5.85;;;;;;;;;;4985078;28;20223;-80
2023/08/18 12:25:40;;;;;;;40.10;7.85;;;;;;;;;;4996779;28;20218;-80
2023/08/18 12:28:07;;;;;;;26.95;5.80;;;;;;;;;;4994683;28;20231;-81
2023/08/18 12:30:33;;;;;;;32.28;6.43;;;;;;;;;;4997932;28;20250;-80
2023/08/18 12:33:00;;;;;;;33.03;6.32;;;;;;;;;;4994562;28;20235;-80
2023/08/18 12:35:27;;;;;;;24.77;5.10;;;;;;;;;;5006734;28;20270;-80
2023/08/18 12:37:54;;;;;;;57.47;9.70;;;;;;;;;;4989367;28;20228;-81
2023/08/18 12:40:20;;;;;;;15.30;3.60;;;;;;;;;;4990216;28;20243;-80
2023/08/18 12:42:47;;;;;;;59.80;15.60;;;;;;;;;;4985100;28;20235;-80
2023/08/18 12:45:13;;;;;;;26.25;5.38;;;;;;;;;;4998389;28;20223;-78
2023/08/18 12:47:40;;;;;;;30.40;6.25;;;;;;;;;;5001602;28;20227;-80
2023/08/18 12:50:07;;;;;;;26.60;5.20;;;;;;;;;;5000587;28;20323;-79
2023/08/18 12:52:34;;;;;;;29.25;5.47;;;;;;;;;;4997261;28;20232;-80
2023/08/18 12:55:00;;;;;;;26.65;4.97;;;;;;;;;;4980620;28;20244;-80
2023/08/18 12:57:27;;;;;;;33.80;6.45;;;;;;;;;;4995275;28;20231;-80
2023/08/18 12:59:53;;;;;;;43.58;9.68;;;;;;;;;;4992165;28;20227;-79
2023/08/18 13:02:20;;;;;;;36.88;11.70;;;;;;;;;;4994311;28;20302;-80
2023/08/18 13:04:47;;;;;;;29.10;6.38;;;;;;;;;;4990116;28;20323;-80
2023/08/18 13:07:13;;;;;;;22.02;4.28;;;;;;;;;;4994178;28;20227;-79
2023/08/18 13:09:44;;;;;;;21.00;5.07;;;;;;;;;;4995825;28;20235;-80
2023/08/18 13:12:10;;;;;;;14.07;3.08;;;;;;;;;;5005374;28;20230;-79
2023/08/18 13:14:43;;;;;;;35.97;7.07;;;;;;;;;;5001932;28;20231;-80
2023/08/18 13:17:09;;;;;;;54.08;33.40;;;;;;;;;;5000471;28;20772;-79
2023/08/18 13:19:36;;;;;;;250.20;230.45;;;;;;;;;;5000081;28;20286;-79
2023/08/18 13:22:13;;;;;;;426.40;394.00;;;;;;;;;;4994256;28;20250;-80
2023/08/18 13:24:40;;;;;;;272.75;250.80;;;;;;;;;;4990060;28;20232;-79
2023/08/18 13:27:07;;;;;;;355.60;327.50;;;;;;;;;;4999552;28;20310;-78
2023/08/18 13:29:33;;;;;;;23.88;6.53;;;;;;;;;;4985925;28;20232;-79
2023/08/18 13:32:00;;;;;;;17.33;4.13;;;;;;;;;;4986989;28;20310;-79
2023/08/18 13:34:27;;;;;;;21.20;5.18;;;;;;;;;;4995810;28;20258;-80
2023/08/18 13:36:53;;;;;;;38.90;9.40;;;;;;;;;;4992760;28;20224;-80
2023/08/18 13:39:21;;;;;;;19.25;5.85;;;;;;;;;;5007992;28;20237;-79
2023/08/18 13:41:48;;;;;;;59.42;16.88;;;;;;;;;;4982974;28;20228;-80
2023/08/18 13:44:14;;;;;;;42.97;20.85;;;;;;;;;;4985138;28;20310;-80
2023/08/18 13:46:41;;;;;;;50.75;9.80;;;;;;;;;;4989124;28;20630;-79
2023/08/18 13:49:10;;;;;;;34.78;9.23;;;;;;;;;;4998723;28;20227;-79
2023/08/18 13:51:38;;;;;;;25.63;5.15;;;;;;;;;;4996245;28;20251;-80
2023/08/18 13:54:05;;;;;;;31.10;6.88;;;;;;;;;;4987358;28;20229;-80
2023/08/18 13:56:31;;;;;;;31.63;9.40;;;;;;;;;;5004061;28;20285;-79
2023/08/18 13:58:59;;;;;;;34.70;7.30;;;;;;;;;;4990637;28;20228;-79
2023/08/18 14:01:26;;;;;;;46.30;8.68;;;;;;;;;;4976131;28;20244;-80
2023/08/18 14:03:53;;;;;;;44.88;13.75;;;;;;;;;;4980737;28;20706;-80
2023/08/18 14:06:20;;;;;;;36.75;15.43;;;;;;;;;;4982309;28;20711;-80
2023/08/18 14:08:46;;;;;;;59.83;28.63;;;;;;;;;;4970570;28;20248;-80
2023/08/18 14:11:14;;;;;;;37.47;9.20;;;;;;;;;;4978804;28;20566;-80
2023/08/18 14:13:42;;;;;;;23.15;5.25;;;;;;;;;;4978078;28;20231;-80
2023/08/18 14:16:09;;;;;;;29.08;5.90;;;;;;;;;;4986815;28;20251;-80
2023/08/18 14:18:36;;;;;;;21.40;4.03;;;;;;;;;;4979820;28;20224;-80
2023/08/18 14:21:04;;;;;;;27.98;5.50;;;;;;;;;;4967264;28;20256;-80
2023/08/18 14:23:30;;;;;;;26.58;5.72;;;;;;;;;;4984652;28;20223;-79
2023/08/18 14:25:57;;;;;;;25.27;5.65;;;;;;;;;;4987009;28;20240;-80
2023/08/18 14:28:24;;;;;;;14.85;3.25;;;;;;;;;;4988581;28;20231;-80
2023/08/18 14:30:50;;;;;;;24.75;6.22;;;;;;;;;;4995098;28;20246;-79